Time;durP1;ratioP1;P1;durP2;ratioP2;P2;SDS_P1;SDS_P2;PMS_P1;PMS_P2;Temp;Humidity;BMP_temperature;BMP_pressure;BME280_temperature;BME280_humidity;BME280_pressure;Samples;Min_cycle;Max_cycle;Signal;HPM_P1;HPM_P2
2024/02/16 00:00:16;;;;;;;1.80;1.60;;;;;;;;;;5027880;28;20279;-57
2024/02/16 00:02:43;;;;;;;3.80;1.70;;;;;;;;;;5028130;28;20179;-57
2024/02/16 00:05:11;;;;;;;3.57;1.90;;;;;;;;;;5025362;28;20169;-57
2024/02/16 00:07:37;;;;;;;2.77;2.03;;;;;;;;;;5028372;28;20278;-56
2024/02/16 00:10:06;;;;;;;1.97;1.80;;;;;;;;;;5027413;28;20272;-57
2024/02/16 00:12:33;;;;;;;2.63;1.77;;;;;;;;;;5029229;28;20730;-57
2024/02/16 00:14:59;;;;;;;2.63;2.00;;;;;;;;;;5025666;28;20601;-57
2024/02/16 00:17:28;;;;;;;2.77;2.20;;;;;;;;;;5028380;28;20207;-57
2024/02/16 00:19:57;;;;;;;2.60;1.80;;;;;;;;;;5027769;28;20240;-57
2024/02/16 00:22:23;;;;;;;3.57;1.80;;;;;;;;;;5028512;28;20177;-56
2024/02/16 00:24:49;;;;;;;2.53;1.83;;;;;;;;;;5027516;28;20684;-57
2024/02/16 00:27:16;;;;;;;3.73;1.80;;;;;;;;;;5028009;28;21603;-57
2024/02/16 00:29:42;;;;;;;4.93;3.50;;;;;;;;;;5028519;28;20185;-56
2024/02/16 00:32:08;;;;;;;3.13;2.13;;;;;;;;;;5028025;28;20203;-56
2024/02/16 00:34:34;;;;;;;2.50;2.10;;;;;;;;;;5023096;28;20214;-57
2024/02/16 00:37:01;;;;;;;2.90;1.60;;;;;;;;;;5028508;28;20218;-56
2024/02/16 00:39:27;;;;;;;3.47;2.03;;;;;;;;;;5026199;28;20640;-57
2024/02/16 00:41:53;;;;;;;2.17;1.97;;;;;;;;;;5027637;28;20303;-56
2024/02/16 00:44:19;;;;;;;2.43;2.23;;;;;;;;;;5027527;28;20685;-57
2024/02/16 00:46:45;;;;;;;2.00;1.87;;;;;;;;;;5028026;28;20294;-57
2024/02/16 00:49:11;;;;;;;2.47;1.80;;;;;;;;;;5027936;28;20225;-57
2024/02/16 00:51:38;;;;;;;6.23;2.23;;;;;;;;;;5028045;28;20694;-56
2024/02/16 00:54:04;;;;;;;4.53;2.17;;;;;;;;;;5023049;28;20215;-56
2024/02/16 00:56:31;;;;;;;2.17;1.90;;;;;;;;;;5026211;28;20175;-56
2024/02/16 00:58:57;;;;;;;2.87;1.50;;;;;;;;;;5025044;28;20215;-56
2024/02/16 01:01:24;;;;;;;2.67;1.97;;;;;;;;;;5026324;28;20178;-56
2024/02/16 01:03:51;;;;;;;2.60;1.73;;;;;;;;;;5027482;28;20183;-56
2024/02/16 01:06:17;;;;;;;4.27;2.03;;;;;;;;;;5028076;28;20272;-55
2024/02/16 01:08:44;;;;;;;4.03;2.03;;;;;;;;;;5026555;28;20563;-56
2024/02/16 01:11:10;;;;;;;2.27;2.10;;;;;;;;;;5027644;28;20178;-56
2024/02/16 01:13:36;;;;;;;3.60;1.80;;;;;;;;;;5027757;28;20199;-56
2024/02/16 01:16:03;;;;;;;2.77;1.90;;;;;;;;;;5027034;28;20207;-55
2024/02/16 01:18:30;;;;;;;2.17;1.97;;;;;;;;;;5027181;28;20585;-56
2024/02/16 01:20:56;;;;;;;2.70;2.33;;;;;;;;;;5027199;28;20169;-55
2024/02/16 01:23:22;;;;;;;2.07;1.87;;;;;;;;;;5027370;28;21016;-56
2024/02/16 01:25:48;;;;;;;2.80;1.90;;;;;;;;;;5024552;28;20191;-56
2024/02/16 01:28:14;;;;;;;2.07;1.93;;;;;;;;;;5027667;28;20274;-56
2024/02/16 01:30:41;;;;;;;2.17;1.77;;;;;;;;;;5028099;28;20276;-56
2024/02/16 01:33:07;;;;;;;3.33;2.20;;;;;;;;;;5027688;28;20233;-56
2024/02/16 01:35:34;;;;;;;3.10;1.70;;;;;;;;;;5027790;28;20754;-56
2024/02/16 01:38:01;;;;;;;3.13;2.00;;;;;;;;;;5028016;28;20510;-55
2024/02/16 01:40:27;;;;;;;4.50;1.83;;;;;;;;;;5026701;28;20570;-55
2024/02/16 01:42:53;;;;;;;5.10;1.80;;;;;;;;;;5027793;28;20211;-55
2024/02/16 01:45:19;;;;;;;2.03;1.60;;;;;;;;;;5026550;28;20541;-55
2024/02/16 01:47:47;;;;;;;2.83;2.50;;;;;;;;;;5027281;28;20195;-56
2024/02/16 01:50:13;;;;;;;3.07;1.80;;;;;;;;;;5027803;28;20198;-54
2024/02/16 01:52:39;;;;;;;2.63;2.07;;;;;;;;;;5027699;28;20179;-55
2024/02/16 01:55:10;;;;;;;2.30;1.60;;;;;;;;;;5028399;28;20695;-55
2024/02/16 01:57:36;;;;;;;3.13;1.87;;;;;;;;;;5028479;28;20225;-55
2024/02/16 02:00:02;;;;;;;2.97;1.80;;;;;;;;;;5030601;28;20175;-55
2024/02/16 02:02:28;;;;;;;1.97;1.80;;;;;;;;;;5030760;28;20191;-56
2024/02/16 02:04:55;;;;;;;3.37;2.00;;;;;;;;;;5030268;28;20178;-55
2024/02/16 02:07:25;;;;;;;4.30;2.20;;;;;;;;;;5031126;28;20209;-55
2024/02/16 02:09:51;;;;;;;4.73;2.17;;;;;;;;;;5027179;28;20194;-52
2024/02/16 02:12:18;;;;;;;2.37;1.60;;;;;;;;;;5030630;28;20181;-52
2024/02/16 02:14:44;;;;;;;1.83;1.70;;;;;;;;;;5022720;28;20683;-52
2024/02/16 02:17:10;;;;;;;4.10;1.93;;;;;;;;;;5029187;28;20174;-52
2024/02/16 02:19:36;;;;;;;4.07;2.17;;;;;;;;;;5026732;28;20218;-52
2024/02/16 02:22:02;;;;;;;6.43;1.97;;;;;;;;;;5030931;28;20255;-53
2024/02/16 02:24:28;;;;;;;2.53;1.80;;;;;;;;;;5029394;28;20655;-52
2024/02/16 02:26:54;;;;;;;2.93;2.00;;;;;;;;;;5030409;28;20580;-54
2024/02/16 02:29:21;;;;;;;2.77;1.90;;;;;;;;;;5028326;28;20187;-56
2024/02/16 02:31:47;;;;;;;2.13;1.93;;;;;;;;;;5030488;28;20654;-53
2024/02/16 02:34:14;;;;;;;2.27;2.00;;;;;;;;;;5030794;28;20727;-52
2024/02/16 02:36:40;;;;;;;2.47;2.07;;;;;;;;;;5030925;28;20182;-52
2024/02/16 02:39:06;;;;;;;1.90;1.67;;;;;;;;;;5028963;28;20294;-52
2024/02/16 02:41:32;;;;;;;2.03;1.80;;;;;;;;;;5030382;28;20532;-54
2024/02/16 02:43:58;;;;;;;3.27;2.30;;;;;;;;;;5029626;28;20556;-51
2024/02/16 02:46:24;;;;;;;1.80;1.70;;;;;;;;;;5030577;28;20567;-53
2024/02/16 02:48:51;;;;;;;2.80;2.10;;;;;;;;;;5029679;28;20186;-53
2024/02/16 02:51:17;;;;;;;3.37;1.90;;;;;;;;;;5030579;28;20599;-51
2024/02/16 02:53:43;;;;;;;3.60;2.00;;;;;;;;;;5028672;28;20738;-52
2024/02/16 02:56:09;;;;;;;1.77;1.60;;;;;;;;;;5030493;28;20183;-53
2024/02/16 02:58:36;;;;;;;3.47;2.17;;;;;;;;;;5028948;28;20190;-53
2024/02/16 03:01:02;;;;;;;6.37;2.73;;;;;;;;;;5030123;28;20189;-53
2024/02/16 03:03:29;;;;;;;2.20;1.57;;;;;;;;;;5023203;28;20222;-54
2024/02/16 03:05:55;;;;;;;4.63;1.90;;;;;;;;;;5027274;28;20190;-54
2024/02/16 03:08:21;;;;;;;4.53;2.07;;;;;;;;;;5029581;28;20574;-54
2024/02/16 03:10:47;;;;;;;2.53;2.33;;;;;;;;;;5029268;28;20185;-52
2024/02/16 03:13:14;;;;;;;3.43;1.90;;;;;;;;;;5029590;28;20192;-52
2024/02/16 03:15:40;;;;;;;3.40;2.33;;;;;;;;;;5029206;28;20187;-53
2024/02/16 03:18:08;;;;;;;3.17;2.00;;;;;;;;;;5029340;28;20214;-52
2024/02/16 03:20:35;;;;;;;2.80;2.00;;;;;;;;;;5035256;28;20185;-55
2024/02/16 03:23:01;;;;;;;3.77;2.03;;;;;;;;;;5016795;28;20265;-55
2024/02/16 03:25:27;;;;;;;4.40;1.87;;;;;;;;;;5028809;28;20242;-55
2024/02/16 03:27:53;;;;;;;3.10;1.90;;;;;;;;;;5029874;28;20655;-55
2024/02/16 03:30:19;;;;;;;2.43;2.17;;;;;;;;;;5027236;28;20261;-55
2024/02/16 03:32:50;;;;;;;2.00;1.83;;;;;;;;;;5029884;28;20236;-55
2024/02/16 03:35:16;;;;;;;3.67;2.20;;;;;;;;;;5029062;28;20209;-55
2024/02/16 03:37:42;;;;;;;2.33;1.90;;;;;;;;;;5029381;28;20265;-55
2024/02/16 03:40:12;;;;;;;4.50;1.90;;;;;;;;;;5028140;28;20170;-55
2024/02/16 03:42:39;;;;;;;3.10;2.23;;;;;;;;;;5029145;28;20201;-55
2024/02/16 03:45:06;;;;;;;2.17;1.97;;;;;;;;;;5029441;28;20187;-55
2024/02/16 03:47:32;;;;;;;1.67;1.57;;;;;;;;;;5029370;28;20178;-55
2024/02/16 03:49:58;;;;;;;3.70;1.93;;;;;;;;;;5029171;28;20186;-55
2024/02/16 03:52:24;;;;;;;3.03;1.90;;;;;;;;;;5026070;28;20637;-55
2024/02/16 03:54:51;;;;;;;3.97;1.87;;;;;;;;;;5028492;28;20194;-55
2024/02/16 03:57:17;;;;;;;3.53;2.30;;;;;;;;;;5027917;28;20712;-55
2024/02/16 03:59:43;;;;;;;2.47;2.00;;;;;;;;;;5028487;28;20516;-55
2024/02/16 04:02:10;;;;;;;2.57;2.00;;;;;;;;;;5028878;28;20183;-55
2024/02/16 04:04:36;;;;;;;2.30;2.10;;;;;;;;;;5028857;28;20191;-55
2024/02/16 04:07:02;;;;;;;2.97;2.13;;;;;;;;;;5029537;28;20177;-55
2024/02/16 04:09:28;;;;;;;2.07;1.83;;;;;;;;;;5025059;28;20590;-55
2024/02/16 04:11:54;;;;;;;3.03;1.90;;;;;;;;;;5029241;28;20546;-56
2024/02/16 04:14:20;;;;;;;2.67;2.00;;;;;;;;;;5028833;28;20683;-55
2024/02/16 04:16:46;;;;;;;3.53;3.23;;;;;;;;;;5028119;28;20652;-55
2024/02/16 04:19:12;;;;;;;2.83;2.20;;;;;;;;;;5027697;28;20218;-55
2024/02/16 04:21:38;;;;;;;3.40;1.97;;;;;;;;;;5027775;28;20181;-55
2024/02/16 04:24:04;;;;;;;4.07;2.00;;;;;;;;;;5026694;28;20189;-55
2024/02/16 04:26:30;;;;;;;3.43;2.33;;;;;;;;;;5029696;28;20531;-56
2024/02/16 04:28:56;;;;;;;3.93;2.30;;;;;;;;;;5028324;28;20209;-55
2024/02/16 04:31:22;;;;;;;4.00;2.00;;;;;;;;;;5028766;28;20178;-56
2024/02/16 04:33:48;;;;;;;4.77;2.10;;;;;;;;;;5027947;28;20250;-55
2024/02/16 04:36:15;;;;;;;3.17;2.20;;;;;;;;;;5027721;28;20604;-55
2024/02/16 04:38:41;;;;;;;1.73;1.63;;;;;;;;;;5027045;28;20633;-55
2024/02/16 04:41:07;;;;;;;3.63;2.17;;;;;;;;;;5026675;28;20268;-55
2024/02/16 04:43:34;;;;;;;3.03;2.07;;;;;;;;;;5025438;28;20693;-55
2024/02/16 04:46:00;;;;;;;2.33;2.03;;;;;;;;;;5025364;28;20386;-55
2024/02/16 04:48:26;;;;;;;7.40;2.40;;;;;;;;;;5019394;28;20181;-55
2024/02/16 04:50:52;;;;;;;2.20;2.00;;;;;;;;;;5022369;28;20194;-55
2024/02/16 04:53:18;;;;;;;3.40;2.10;;;;;;;;;;5026734;28;20277;-55
2024/02/16 04:55:44;;;;;;;4.13;1.97;;;;;;;;;;5021695;28;20618;-56
2024/02/16 04:58:10;;;;;;;2.87;2.30;;;;;;;;;;5028019;28;20174;-55
2024/02/16 05:00:39;;;;;;;2.90;2.47;;;;;;;;;;5027730;28;20188;-55
2024/02/16 05:03:05;;;;;;;2.37;2.17;;;;;;;;;;5027868;28;20173;-56
2024/02/16 05:05:32;;;;;;;3.23;2.00;;;;;;;;;;5026885;28;20192;-56
2024/02/16 05:08:01;;;;;;;2.97;2.10;;;;;;;;;;5027278;28;20260;-56
2024/02/16 05:10:28;;;;;;;2.90;1.73;;;;;;;;;;5026786;28;20545;-55
2024/02/16 05:12:54;;;;;;;2.13;1.93;;;;;;;;;;5025787;28;20177;-56
2024/02/16 05:15:20;;;;;;;2.47;1.90;;;;;;;;;;5027045;28;20215;-55
2024/02/16 05:17:51;;;;;;;4.27;1.90;;;;;;;;;;5026503;28;20650;-56
2024/02/16 05:20:19;;;;;;;2.03;1.83;;;;;;;;;;5027935;28;20520;-55
2024/02/16 05:22:46;;;;;;;3.10;2.23;;;;;;;;;;5028160;28;20178;-56
2024/02/16 05:25:15;;;;;;;2.47;2.27;;;;;;;;;;5026566;28;20708;-55
2024/02/16 05:27:41;;;;;;;2.83;2.00;;;;;;;;;;5027971;28;20528;-55
2024/02/16 05:30:11;;;;;;;3.03;2.47;;;;;;;;;;5031090;28;20234;-56
2024/02/16 05:32:37;;;;;;;3.87;2.00;;;;;;;;;;5030091;28;20272;-56
2024/02/16 05:35:16;;;;;;;3.63;2.40;;;;;;;;;;5030080;28;20656;-56
2024/02/16 05:37:44;;;;;;;3.33;2.57;;;;;;;;;;5031699;28;20674;-56
2024/02/16 05:40:28;;;;;;;6.80;2.53;;;;;;;;;;5029356;28;20203;-55
2024/02/16 05:42:57;;;;;;;4.37;2.03;;;;;;;;;;5026084;28;20204;-60
2024/02/16 05:45:24;;;;;;;3.00;1.90;;;;;;;;;;5030307;28;20186;-60
2024/02/16 05:47:51;;;;;;;2.90;2.17;;;;;;;;;;5031312;28;20234;-60
2024/02/16 05:50:17;;;;;;;3.00;2.30;;;;;;;;;;5029609;28;20528;-59
2024/02/16 05:52:44;;;;;;;3.20;2.17;;;;;;;;;;5030927;28;20554;-59
2024/02/16 05:55:10;;;;;;;4.33;2.37;;;;;;;;;;5021299;28;20203;-59
2024/02/16 05:57:37;;;;;;;2.33;1.97;;;;;;;;;;5027613;28;20330;-59
2024/02/16 06:00:07;;;;;;;2.73;2.20;;;;;;;;;;5026371;28;20194;-60
2024/02/16 06:02:33;;;;;;;3.47;2.07;;;;;;;;;;5030119;28;20530;-59
2024/02/16 06:04:59;;;;;;;3.57;2.17;;;;;;;;;;5027739;28;20226;-59
2024/02/16 06:07:25;;;;;;;5.67;2.17;;;;;;;;;;5024951;28;20270;-59
2024/02/16 06:09:54;;;;;;;3.37;2.43;;;;;;;;;;5024978;28;20627;-60
2024/02/16 06:12:20;;;;;;;5.07;2.40;;;;;;;;;;5026786;28;20194;-58
2024/02/16 06:14:48;;;;;;;3.43;2.23;;;;;;;;;;5030563;28;20199;-60
2024/02/16 06:17:14;;;;;;;3.27;2.10;;;;;;;;;;5029282;28;20253;-60
2024/02/16 06:19:40;;;;;;;4.47;2.20;;;;;;;;;;5027344;28;20221;-60
2024/02/16 06:22:08;;;;;;;3.77;2.47;;;;;;;;;;5027611;28;20233;-58
2024/02/16 06:24:34;;;;;;;3.80;2.20;;;;;;;;;;5023879;28;20188;-60
2024/02/16 06:27:00;;;;;;;2.47;2.03;;;;;;;;;;5026234;28;20582;-60
2024/02/16 06:29:26;;;;;;;4.43;2.47;;;;;;;;;;5026696;28;20262;-60
2024/02/16 06:31:52;;;;;;;4.80;2.97;;;;;;;;;;5022402;28;20634;-55
2024/02/16 06:34:19;;;;;;;3.33;2.20;;;;;;;;;;5028398;28;20325;-59
2024/02/16 06:36:45;;;;;;;2.77;2.40;;;;;;;;;;5028692;28;20675;-56
2024/02/16 06:39:16;;;;;;;3.97;2.33;;;;;;;;;;5027436;28;20173;-55
2024/02/16 06:41:43;;;;;;;2.90;2.37;;;;;;;;;;5026427;28;20324;-55
2024/02/16 06:44:10;;;;;;;3.60;2.67;;;;;;;;;;5027596;28;20752;-55
2024/02/16 06:46:36;;;;;;;4.50;2.20;;;;;;;;;;5027701;28;20183;-55
2024/02/16 06:49:02;;;;;;;2.67;2.47;;;;;;;;;;5026307;28;20235;-55
2024/02/16 06:51:28;;;;;;;2.00;1.90;;;;;;;;;;5027756;28;20639;-53
2024/02/16 06:53:55;;;;;;;4.60;2.40;;;;;;;;;;5027041;28;20207;-53
2024/02/16 06:56:21;;;;;;;4.37;2.60;;;;;;;;;;5028061;28;20163;-53
2024/02/16 06:58:47;;;;;;;2.37;1.90;;;;;;;;;;5028837;28;20182;-52
2024/02/16 07:01:14;;;;;;;2.80;2.20;;;;;;;;;;5029250;28;20303;-54
2024/02/16 07:03:40;;;;;;;2.57;2.10;;;;;;;;;;5027827;28;20180;-53
2024/02/16 07:06:09;;;;;;;4.87;2.40;;;;;;;;;;5028333;28;20234;-52
2024/02/16 07:08:36;;;;;;;3.43;2.20;;;;;;;;;;5020497;28;20566;-52
2024/02/16 07:11:03;;;;;;;3.63;2.23;;;;;;;;;;5028894;28;20618;-53
2024/02/16 07:13:29;;;;;;;2.63;2.27;;;;;;;;;;5028889;28;20723;-52
2024/02/16 07:15:55;;;;;;;3.97;2.23;;;;;;;;;;5029144;28;20201;-52
2024/02/16 07:18:21;;;;;;;2.93;2.07;;;;;;;;;;5027661;28;20272;-53
2024/02/16 07:20:47;;;;;;;3.37;2.30;;;;;;;;;;5025649;28;20202;-51
2024/02/16 07:23:15;;;;;;;3.60;2.33;;;;;;;;;;5027941;28;20670;-52
2024/02/16 07:25:41;;;;;;;4.73;2.43;;;;;;;;;;5028934;28;20632;-51
2024/02/16 07:28:07;;;;;;;3.97;2.10;;;;;;;;;;5028505;28;20542;-52
2024/02/16 07:30:34;;;;;;;2.97;2.67;;;;;;;;;;5027141;28;20615;-52
2024/02/16 07:33:00;;;;;;;2.40;2.20;;;;;;;;;;5023699;28;20728;-53
2024/02/16 07:35:26;;;;;;;2.30;2.10;;;;;;;;;;5027823;28;20215;-52
2024/02/16 07:37:53;;;;;;;3.07;2.10;;;;;;;;;;5026977;28;20186;-52
2024/02/16 07:40:20;;;;;;;4.03;2.30;;;;;;;;;;5027537;28;20205;-53
2024/02/16 07:42:46;;;;;;;3.37;2.23;;;;;;;;;;5028564;28;20191;-54
2024/02/16 07:45:12;;;;;;;3.63;2.50;;;;;;;;;;5027656;28;20189;-55
2024/02/16 07:47:40;;;;;;;2.50;2.30;;;;;;;;;;5027777;28;20182;-55
2024/02/16 07:50:07;;;;;;;3.50;2.03;;;;;;;;;;5027513;28;20707;-55
2024/02/16 07:52:33;;;;;;;3.93;2.60;;;;;;;;;;5024015;28;20199;-55
2024/02/16 07:54:59;;;;;;;5.97;2.70;;;;;;;;;;5026932;28;20661;-60
2024/02/16 07:57:25;;;;;;;2.50;2.20;;;;;;;;;;5027556;28;20174;-59
2024/02/16 07:59:51;;;;;;;4.60;2.50;;;;;;;;;;5026627;28;20466;-59
2024/02/16 08:02:17;;;;;;;4.17;2.53;;;;;;;;;;5026965;28;20168;-55
2024/02/16 08:04:47;;;;;;;4.23;2.53;;;;;;;;;;5026775;28;20281;-55
2024/02/16 08:07:13;;;;;;;2.97;2.67;;;;;;;;;;5027860;28;20215;-55
2024/02/16 08:09:39;;;;;;;2.73;2.40;;;;;;;;;;5026921;28;20206;-55
2024/02/16 08:12:06;;;;;;;5.13;2.90;;;;;;;;;;5028026;28;20676;-55
2024/02/16 08:14:36;;;;;;;3.40;2.00;;;;;;;;;;5028015;28;20650;-55
2024/02/16 08:17:02;;;;;;;3.50;2.07;;;;;;;;;;5028103;28;20174;-55
2024/02/16 08:19:33;;;;;;;6.30;2.63;;;;;;;;;;5026967;28;20276;-55
2024/02/16 08:22:00;;;;;;;6.87;3.07;;;;;;;;;;5026420;28;20170;-55
2024/02/16 08:24:26;;;;;;;4.63;2.40;;;;;;;;;;5024925;28;20559;-55
2024/02/16 08:26:52;;;;;;;3.67;2.53;;;;;;;;;;5027562;28;20223;-55
2024/02/16 08:29:20;;;;;;;4.03;2.43;;;;;;;;;;5027350;28;20715;-55
2024/02/16 08:31:46;;;;;;;4.10;2.63;;;;;;;;;;5026471;28;20695;-55
2024/02/16 08:34:12;;;;;;;4.33;2.70;;;;;;;;;;5027097;28;20671;-55
2024/02/16 08:36:40;;;;;;;3.30;2.50;;;;;;;;;;5027342;28;20220;-55
2024/02/16 08:39:06;;;;;;;3.57;3.03;;;;;;;;;;5026068;28;20273;-55
2024/02/16 08:41:32;;;;;;;2.40;2.07;;;;;;;;;;5026598;28;20237;-55
2024/02/16 08:43:58;;;;;;;4.50;2.77;;;;;;;;;;5026538;28;20669;-54
2024/02/16 08:46:24;;;;;;;4.23;2.80;;;;;;;;;;5027260;28;20189;-55
2024/02/16 08:48:50;;;;;;;2.60;2.40;;;;;;;;;;5019611;28;20179;-55
2024/02/16 08:51:16;;;;;;;3.60;2.60;;;;;;;;;;5027336;28;20280;-55
2024/02/16 08:53:42;;;;;;;3.33;2.40;;;;;;;;;;5025633;28;20202;-55
2024/02/16 08:56:12;;;;;;;4.73;2.60;;;;;;;;;;5024862;28;20196;-55
2024/02/16 08:58:38;;;;;;;4.40;2.60;;;;;;;;;;5022220;28;20257;-55
2024/02/16 09:01:05;;;;;;;3.47;2.60;;;;;;;;;;5027370;28;20175;-55
2024/02/16 09:03:38;;;;;;;3.03;2.30;;;;;;;;;;5027569;28;20181;-55
2024/02/16 09:06:04;;;;;;;5.17;2.43;;;;;;;;;;5031158;28;20621;-55
2024/02/16 09:08:35;;;;;;;6.17;2.83;;;;;;;;;;5029734;28;20178;-55
2024/02/16 09:11:04;;;;;;;2.60;2.13;;;;;;;;;;5031889;28;20266;-55
2024/02/16 09:13:31;;;;;;;4.27;2.50;;;;;;;;;;5030961;28;20179;-55
2024/02/16 09:15:57;;;;;;;5.03;2.60;;;;;;;;;;5028443;28;20202;-51
2024/02/16 09:18:23;;;;;;;7.03;3.37;;;;;;;;;;5029785;28;20673;-53
2024/02/16 09:20:49;;;;;;;3.93;2.87;;;;;;;;;;5030739;28;20168;-53
2024/02/16 09:23:15;;;;;;;3.10;2.40;;;;;;;;;;5029648;28;20213;-53
2024/02/16 09:25:41;;;;;;;4.07;2.50;;;;;;;;;;5030164;28;20716;-54
2024/02/16 09:28:07;;;;;;;6.23;3.10;;;;;;;;;;5026318;28;20195;-52
2024/02/16 09:30:33;;;;;;;4.07;2.90;;;;;;;;;;5025094;28;20213;-53
2024/02/16 09:32:59;;;;;;;4.67;3.00;;;;;;;;;;5030302;28;20650;-52
2024/02/16 09:35:25;;;;;;;5.23;3.47;;;;;;;;;;5029065;28;20274;-53
2024/02/16 09:37:51;;;;;;;7.03;3.17;;;;;;;;;;5030262;28;20178;-54
2024/02/16 09:40:18;;;;;;;4.77;2.77;;;;;;;;;;5029575;28;20543;-53
2024/02/16 09:42:49;;;;;;;3.93;2.60;;;;;;;;;;5030181;28;20198;-52
2024/02/16 09:45:15;;;;;;;5.77;3.63;;;;;;;;;;5030602;28;20275;-51
2024/02/16 09:47:49;;;;;;;3.53;2.80;;;;;;;;;;5030757;28;20673;-52
2024/02/16 09:50:15;;;;;;;3.47;2.77;;;;;;;;;;5029732;28;20206;-53
2024/02/16 09:52:41;;;;;;;6.57;2.80;;;;;;;;;;5030639;28;20169;-52
2024/02/16 09:55:13;;;;;;;3.60;3.00;;;;;;;;;;5027949;28;20661;-52
2024/02/16 09:57:39;;;;;;;5.57;3.03;;;;;;;;;;5029589;28;20529;-50
2024/02/16 10:00:06;;;;;;;4.10;2.90;;;;;;;;;;5030425;28;20670;-51
2024/02/16 10:02:44;;;;;;;4.90;2.70;;;;;;;;;;5029617;28;20645;-54
2024/02/16 10:05:16;;;;;;;4.97;2.93;;;;;;;;;;5024292;28;20173;-53
2024/02/16 10:07:43;;;;;;;3.63;2.77;;;;;;;;;;5029413;28;20535;-52
2024/02/16 10:10:30;;;;;;;3.83;2.87;;;;;;;;;;5028884;28;20178;-52
2024/02/16 10:13:04;;;;;;;5.07;2.50;;;;;;;;;;5028377;28;20206;-52
2024/02/16 10:15:30;;;;;;;5.00;3.47;;;;;;;;;;5028993;28;20194;-51
2024/02/16 10:18:05;;;;;;;3.57;2.40;;;;;;;;;;5028937;28;20178;-52
2024/02/16 10:20:35;;;;;;;6.30;2.87;;;;;;;;;;5030057;28;20861;-52
2024/02/16 10:23:08;;;;;;;5.43;3.33;;;;;;;;;;5029467;28;20174;-55
2024/02/16 10:25:36;;;;;;;3.37;2.70;;;;;;;;;;5024422;28;20609;-55
2024/02/16 10:28:05;;;;;;;6.07;3.07;;;;;;;;;;5029133;28;20626;-55
2024/02/16 10:30:34;;;;;;;4.83;3.00;;;;;;;;;;5029446;28;20185;-55
2024/02/16 10:33:00;;;;;;;3.30;2.90;;;;;;;;;;5030280;28;20917;-55
2024/02/16 10:35:28;;;;;;;4.43;3.03;;;;;;;;;;5028186;28;20460;-56
2024/02/16 10:37:56;;;;;;;3.70;2.77;;;;;;;;;;5029646;28;20648;-55
2024/02/16 10:40:23;;;;;;;4.20;2.97;;;;;;;;;;5026964;28;20189;-55
2024/02/16 10:42:52;;;;;;;4.60;3.17;;;;;;;;;;5023343;28;20663;-55
2024/02/16 10:45:19;;;;;;;4.80;2.70;;;;;;;;;;5029025;28;20474;-55
2024/02/16 10:47:45;;;;;;;5.57;2.90;;;;;;;;;;5027239;28;20339;-55
2024/02/16 10:50:12;;;;;;;6.27;3.00;;;;;;;;;;5028389;28;20182;-56
2024/02/16 10:52:39;;;;;;;6.70;3.30;;;;;;;;;;5029310;28;20669;-55
2024/02/16 10:55:06;;;;;;;5.30;2.60;;;;;;;;;;5028400;28;20305;-55
2024/02/16 10:57:33;;;;;;;6.03;3.07;;;;;;;;;;5028375;28;20566;-55
2024/02/16 10:59:59;;;;;;;3.77;2.40;;;;;;;;;;5028351;28;20270;-55
2024/02/16 11:02:26;;;;;;;3.47;2.70;;;;;;;;;;5027908;28;20248;-55
2024/02/16 11:04:53;;;;;;;4.67;2.90;;;;;;;;;;5028810;28;20233;-55
2024/02/16 11:07:20;;;;;;;6.03;3.53;;;;;;;;;;5030315;28;20193;-55
2024/02/16 11:09:48;;;;;;;5.33;3.03;;;;;;;;;;5026827;28;20235;-55
2024/02/16 11:12:15;;;;;;;6.43;3.60;;;;;;;;;;5029507;28;20203;-55
2024/02/16 11:14:45;;;;;;;3.90;2.90;;;;;;;;;;5027708;28;20228;-55
2024/02/16 11:17:12;;;;;;;5.70;2.67;;;;;;;;;;5027970;28;20169;-55
2024/02/16 11:19:41;;;;;;;5.40;2.77;;;;;;;;;;5027315;28;20219;-55
2024/02/16 11:22:08;;;;;;;4.43;3.13;;;;;;;;;;5028187;28;20177;-55
2024/02/16 11:24:35;;;;;;;8.00;4.00;;;;;;;;;;5028000;28;20684;-55
2024/02/16 11:27:04;;;;;;;4.00;2.67;;;;;;;;;;5027749;28;20193;-55
2024/02/16 11:29:34;;;;;;;5.27;3.40;;;;;;;;;;5028925;28;20172;-55
2024/02/16 11:32:02;;;;;;;5.73;3.23;;;;;;;;;;5024770;28;20734;-60
2024/02/16 11:34:28;;;;;;;6.73;2.83;;;;;;;;;;5025964;28;20261;-59
2024/02/16 11:36:59;;;;;;;4.53;2.70;;;;;;;;;;5025576;28;20173;-60
2024/02/16 11:39:25;;;;;;;4.03;3.20;;;;;;;;;;5022149;28;20535;-60
2024/02/16 11:42:04;;;;;;;5.40;2.97;;;;;;;;;;5027729;28;20195;-60
2024/02/16 11:44:33;;;;;;;5.33;2.70;;;;;;;;;;5027760;28;20596;-60
2024/02/16 11:47:00;;;;;;;5.70;3.23;;;;;;;;;;5028439;28;20180;-60
2024/02/16 11:49:27;;;;;;;5.30;2.93;;;;;;;;;;5026940;28;20195;-60
2024/02/16 11:51:53;;;;;;;5.17;3.10;;;;;;;;;;5027971;28;20177;-60
2024/02/16 11:54:19;;;;;;;5.53;2.87;;;;;;;;;;5025214;28;20246;-59
2024/02/16 11:56:51;;;;;;;4.63;3.20;;;;;;;;;;5022676;28;20262;-60
2024/02/16 11:59:18;;;;;;;9.00;3.60;;;;;;;;;;5028539;28;20186;-60
2024/02/16 12:01:57;;;;;;;4.20;3.47;;;;;;;;;;5028095;28;20621;-60
2024/02/16 12:04:24;;;;;;;9.80;3.83;;;;;;;;;;5028438;28;20182;-59
2024/02/16 12:07:00;;;;;;;4.73;3.10;;;;;;;;;;5029447;28;20621;-60
2024/02/16 12:09:27;;;;;;;5.43;3.10;;;;;;;;;;5026464;28;20178;-60
2024/02/16 12:11:54;;;;;;;6.43;3.60;;;;;;;;;;5028178;28;20226;-60
2024/02/16 12:14:22;;;;;;;4.67;3.63;;;;;;;;;;5026896;28;20525;-60
2024/02/16 12:16:49;;;;;;;7.23;3.70;;;;;;;;;;5026978;28;20173;-59
2024/02/16 12:19:15;;;;;;;5.90;4.07;;;;;;;;;;5026229;28;20336;-60
2024/02/16 12:21:41;;;;;;;5.70;3.40;;;;;;;;;;5026879;28;20663;-59
2024/02/16 12:24:08;;;;;;;7.97;4.00;;;;;;;;;;5027047;28;20613;-59
2024/02/16 12:26:34;;;;;;;8.93;4.07;;;;;;;;;;5027072;28;20345;-59
2024/02/16 12:29:00;;;;;;;9.13;4.13;;;;;;;;;;5023424;28;20201;-60
2024/02/16 12:31:26;;;;;;;4.90;3.70;;;;;;;;;;5028038;28;20645;-60
2024/02/16 12:33:52;;;;;;;9.10;4.13;;;;;;;;;;5021864;28;20746;-59
2024/02/16 12:36:18;;;;;;;9.50;4.13;;;;;;;;;;5025969;28;20565;-60
2024/02/16 12:38:44;;;;;;;12.20;4.40;;;;;;;;;;5023729;28;20582;-59
2024/02/16 12:41:10;;;;;;;14.37;4.27;;;;;;;;;;5024240;28;20678;-60
2024/02/16 12:43:36;;;;;;;11.07;4.70;;;;;;;;;;5021854;28;20268;-55
2024/02/16 12:46:04;;;;;;;11.50;5.07;;;;;;;;;;5020527;28;20552;-55
2024/02/16 12:48:30;;;;;;;6.73;4.57;;;;;;;;;;5022825;28;20585;-55
2024/02/16 12:50:57;;;;;;;8.13;4.63;;;;;;;;;;5027105;28;20183;-55
2024/02/16 12:53:25;;;;;;;7.37;4.40;;;;;;;;;;5017276;28;20721;-55
2024/02/16 12:55:51;;;;;;;10.37;4.80;;;;;;;;;;5030564;28;20189;-55
2024/02/16 12:58:17;;;;;;;8.53;5.20;;;;;;;;;;5026284;28;20192;-55
2024/02/16 13:00:43;;;;;;;7.73;5.17;;;;;;;;;;5019294;28;20180;-55
2024/02/16 13:03:09;;;;;;;5.33;4.83;;;;;;;;;;5021881;28;20189;-55
2024/02/16 13:05:35;;;;;;;9.67;6.07;;;;;;;;;;5026832;28;20169;-55
2024/02/16 13:08:01;;;;;;;6.17;4.97;;;;;;;;;;5028254;28;20174;-55
2024/02/16 13:10:27;;;;;;;7.57;5.67;;;;;;;;;;5025566;28;20485;-55
2024/02/16 13:12:53;;;;;;;9.07;5.17;;;;;;;;;;5028349;28;20194;-54
2024/02/16 13:15:19;;;;;;;8.37;5.67;;;;;;;;;;5027136;28;20256;-55
2024/02/16 13:17:46;;;;;;;6.63;5.00;;;;;;;;;;5027076;28;20184;-55
2024/02/16 13:20:12;;;;;;;8.23;5.53;;;;;;;;;;5027154;28;20227;-55
2024/02/16 13:22:38;;;;;;;8.43;5.97;;;;;;;;;;5027790;28;20192;-55
2024/02/16 13:25:07;;;;;;;10.10;5.87;;;;;;;;;;5026083;28;20211;-55
2024/02/16 13:27:36;;;;;;;10.23;5.77;;;;;;;;;;5027213;28;20207;-55
2024/02/16 13:30:05;;;;;;;6.20;5.53;;;;;;;;;;5026982;28;20505;-55
2024/02/16 13:32:32;;;;;;;9.30;6.73;;;;;;;;;;5027782;28;20636;-55
2024/02/16 13:34:58;;;;;;;6.90;5.50;;;;;;;;;;5026130;28;20211;-55
2024/02/16 13:37:24;;;;;;;18.97;7.43;;;;;;;;;;5025735;28;20188;-55
2024/02/16 13:39:50;;;;;;;12.00;6.50;;;;;;;;;;5018642;28;20184;-55
2024/02/16 13:42:17;;;;;;;10.90;6.50;;;;;;;;;;5020569;28;20202;-55
2024/02/16 13:44:43;;;;;;;9.70;7.40;;;;;;;;;;5023897;28;20666;-54
2024/02/16 13:47:09;;;;;;;11.67;6.83;;;;;;;;;;5026936;28;20243;-55
2024/02/16 13:49:35;;;;;;;9.13;6.37;;;;;;;;;;5026130;28;20206;-55
2024/02/16 13:52:01;;;;;;;12.57;7.10;;;;;;;;;;5028163;28;20433;-55
2024/02/16 13:54:27;;;;;;;12.23;6.93;;;;;;;;;;5025397;28;20730;-56
2024/02/16 13:56:53;;;;;;;12.17;6.93;;;;;;;;;;5028189;28;20180;-56
2024/02/16 13:59:20;;;;;;;12.43;6.47;;;;;;;;;;5026915;28;20428;-56
2024/02/16 14:01:46;;;;;;;8.47;6.00;;;;;;;;;;5030214;28;20171;-56
2024/02/16 14:04:13;;;;;;;9.70;6.03;;;;;;;;;;5027034;28;20315;-56
2024/02/16 14:06:39;;;;;;;10.73;6.30;;;;;;;;;;5028408;28;20648;-56
2024/02/16 14:09:08;;;;;;;7.07;6.37;;;;;;;;;;5028868;28;20203;-56
2024/02/16 14:11:37;;;;;;;14.60;7.77;;;;;;;;;;5029779;28;20183;-57
2024/02/16 14:14:03;;;;;;;9.87;7.03;;;;;;;;;;5028241;28;20749;-55
2024/02/16 14:16:30;;;;;;;10.73;6.40;;;;;;;;;;5029082;28;20630;-56
2024/02/16 14:18:56;;;;;;;8.00;7.20;;;;;;;;;;5026012;28;20219;-56
2024/02/16 14:21:22;;;;;;;7.57;6.70;;;;;;;;;;5026028;28;20190;-56
2024/02/16 14:23:48;;;;;;;7.97;6.83;;;;;;;;;;5023951;28;20909;-55
2024/02/16 14:26:14;;;;;;;12.57;6.37;;;;;;;;;;5029523;28;20238;-56
2024/02/16 14:28:40;;;;;;;9.03;6.87;;;;;;;;;;5025347;28;20169;-56
2024/02/16 14:31:07;;;;;;;10.50;6.53;;;;;;;;;;5027975;28;20664;-56
2024/02/16 14:33:33;;;;;;;8.47;6.77;;;;;;;;;;5029937;28;20519;-56
2024/02/16 14:36:00;;;;;;;10.87;7.43;;;;;;;;;;5026255;28;20223;-56
2024/02/16 14:38:26;;;;;;;10.37;7.10;;;;;;;;;;5027110;28;20234;-56
2024/02/16 14:40:52;;;;;;;7.33;6.50;;;;;;;;;;5027329;28;20182;-55